Time;durP1;ratioP1;P1;durP2;ratioP2;P2;SDS_P1;SDS_P2;PMS_P1;PMS_P2;Temp;Humidity;BMP_temperature;BMP_pressure;BME280_temperature;BME280_humidity;BME280_pressure;Samples;Min_cycle;Max_cycle;Signal;HPM_P1;HPM_P2
2023/01/29 00:02:15;;;;;;;31.02;16.13;;;5.10;99.90;;;;;;5050341;28;20476;-76
2023/01/29 00:04:43;;;;;;;27.30;15.23;;;6.50;99.90;;;;;;5033506;28;20068;-78
2023/01/29 00:07:10;;;;;;;27.40;16.48;;;5.10;99.90;;;;;;5017351;28;20058;-76
2023/01/29 00:09:38;;;;;;;30.77;16.33;;;5.80;99.90;;;;;;5034488;28;20053;-75
2023/01/29 00:12:07;;;;;;;27.05;14.98;;;5.10;99.90;;;;;;5033588;28;20042;-76
2023/01/29 00:14:35;;;;;;;26.50;14.90;;;5.10;99.90;;;;;;5034428;28;20041;-75
2023/01/29 00:17:03;;;;;;;28.63;14.98;;;5.20;99.90;;;;;;5034490;28;20053;-76
2023/01/29 00:19:30;;;;;;;24.63;14.85;;;5.10;99.90;;;;;;5033395;28;20390;-74
2023/01/29 00:21:58;;;;;;;27.48;15.40;;;5.10;99.90;;;;;;5034418;28;20038;-78
2023/01/29 00:24:25;;;;;;;30.90;15.07;;;5.00;99.90;;;;;;5015888;28;20502;-74
2023/01/29 00:26:53;;;;;;;25.80;14.88;;;5.20;99.90;;;;;;5034962;28;20053;-75
2023/01/29 00:29:20;;;;;;;26.90;15.65;;;5.10;99.90;;;;;;5017014;28;20042;-75
2023/01/29 00:31:48;;;;;;;28.98;16.05;;;5.10;99.90;;;;;;5016138;28;20468;-75
2023/01/29 00:34:16;;;;;;;27.02;15.68;;;5.30;99.90;;;;;;5034335;28;20399;-77
2023/01/29 00:36:44;;;;;;;25.77;15.48;;;5.10;99.90;;;;;;5017081;28;20045;-77
2023/01/29 00:39:12;;;;;;;30.83;16.50;;;5.10;99.90;;;;;;5016035;28;20049;-78
2023/01/29 00:47:30;;;;;;;29.77;15.68;;;5.10;99.90;;;;;;5034328;28;20038;-77
2023/01/29 00:49:58;;;;;;;34.70;15.98;;;5.70;99.90;;;;;;5016915;28;20045;-76
2023/01/29 00:52:26;;;;;;;30.67;16.58;;;5.10;99.90;;;;;;5015859;28;20453;-77
2023/01/29 00:54:59;;;;;;;31.00;15.85;;;5.10;99.90;;;;;;5034287;28;20045;-79
2023/01/29 00:57:29;;;;;;;28.30;15.95;;;5.10;99.90;;;;;;5034367;28;20037;-78
2023/01/29 00:59:57;;;;;;;30.10;16.98;;;5.10;99.90;;;;;;5032947;28;20041;-75
2023/01/29 01:05:16;;;;;;;34.38;17.10;;;5.10;99.90;;;;;;4999658;28;20057;-76
2023/01/29 01:07:52;;;;;;;31.05;16.90;;;5.00;99.90;;;;;;5033919;28;20041;-75
2023/01/29 01:10:27;;;;;;;37.67;18.23;;;5.10;99.90;;;;;;5017936;28;20045;-75
2023/01/29 01:13:04;;;;;;;30.30;16.67;;;5.80;99.90;;;;;;5019116;28;20048;-74
2023/01/29 01:15:38;;;;;;;34.65;17.65;;;5.00;99.90;;;;;;5037666;28;20053;-77
2023/01/29 01:18:06;;;;;;;35.47;18.13;;;5.10;99.90;;;;;;5019189;28;20064;-76
2023/01/29 01:20:35;;;;;;;30.92;17.27;;;5.10;99.90;;;;;;5037606;28;20041;-75
2023/01/29 01:23:02;;;;;;;33.58;18.35;;;5.10;99.90;;;;;;5037798;28;20057;-77
2023/01/29 01:25:30;;;;;;;;;;;5.10;99.90;;;;;;5036642;28;20057;-74
2023/01/29 01:27:58;;;;;;;40.15;18.52;;;5.00;99.90;;;;;;5037669;28;19921;-76
2023/01/29 01:30:26;;;;;;;39.30;19.73;;;5.10;99.90;;;;;;5019790;28;20487;-75
2023/01/29 01:32:54;;;;;;;36.20;19.95;;;5.20;99.90;;;;;;5018787;28;20056;-75
2023/01/29 01:35:22;;;;;;;36.33;20.08;;;5.10;99.90;;;;;;5019976;28;20045;-76
2023/01/29 01:37:50;;;;;;;37.70;19.55;;;5.00;99.90;;;;;;5036458;28;20041;-74
2023/01/29 01:40:23;;;;;;;41.97;20.90;;;5.10;99.90;;;;;;5019804;28;20480;-77
2023/01/29 01:42:54;;;;;;;38.92;21.85;;;5.70;99.90;;;;;;5020067;28;20448;-75
2023/01/29 01:45:29;;;;;;;37.63;20.90;;;5.00;99.90;;;;;;5036069;28;20079;-74
2023/01/29 01:48:25;;;;;;;38.65;20.80;;;5.10;99.90;;;;;;5019569;28;20037;-77
2023/01/29 01:50:58;;;;;;;39.60;21.17;;;5.10;99.90;;;;;;5036921;28;20046;-74
2023/01/29 01:53:33;;;;;;;45.03;22.52;;;5.10;99.90;;;;;;5037061;28;20050;-75
2023/01/29 01:56:11;;;;;;;40.90;21.27;;;5.10;99.90;;;;;;5036750;28;20045;-75
2023/01/29 01:58:49;;;;;;;38.75;21.73;;;5.10;99.90;;;;;;5018697;28;20334;-74
2023/01/29 02:01:17;;;;;;;39.85;21.40;;;5.10;99.90;;;;;;5019514;28;20041;-77
2023/01/29 02:09:45;;;;;;;38.80;21.30;;;5.10;99.90;;;;;;5055821;28;20036;-78
2023/01/29 02:12:15;;;;;;;39.15;21.83;;;5.10;99.90;;;;;;5054571;28;20041;-76
2023/01/29 02:14:43;;;;;;;42.28;21.50;;;5.00;99.90;;;;;;5055408;28;20375;-74
2023/01/29 02:17:15;;;;;;;;;;;5.00;99.90;;;;;;5056442;28;20448;-79
2023/01/29 02:20:13;;;;;;;39.63;20.77;;;5.10;99.90;;;;;;5054459;28;19921;-74
2023/01/29 02:23:03;;;;;;;46.65;21.33;;;5.00;99.90;;;;;;5056306;28;20048;-76
2023/01/29 02:26:09;;;;;;;39.30;20.77;;;5.00;99.90;;;;;;5054578;28;20460;-75
2023/01/29 02:29:29;;;;;;;41.40;20.42;;;5.00;99.90;;;;;;5039102;28;20056;-78
2023/01/29 02:32:24;;;;;;;40.78;20.95;;;5.00;99.90;;;;;;5055154;28;20045;-76
2023/01/29 02:35:27;;;;;;;41.10;21.05;;;5.00;99.90;;;;;;5056207;28;20040;-77
2023/01/29 02:37:57;;;;;;;37.83;21.05;;;5.00;99.90;;;;;;5053936;28;20048;-78
2023/01/29 02:40:33;;;;;;;37.95;19.63;;;5.00;99.90;;;;;;5055623;28;20044;-78
2023/01/29 02:43:25;;;;;;;42.35;20.90;;;5.00;99.90;;;;;;5038711;28;20052;-78
2023/01/29 02:46:16;;;;;;;43.70;21.08;;;5.00;99.90;;;;;;5054713;28;20372;-78
2023/01/29 02:48:54;;;;;;;38.15;20.33;;;5.00;99.90;;;;;;5054774;28;20052;-75
2023/01/29 02:51:34;;;;;;;36.00;21.20;;;5.00;99.90;;;;;;5037898;28;20047;-76
2023/01/29 02:54:12;;;;;;;39.45;20.33;;;5.00;99.90;;;;;;5055839;28;20371;-79
2023/01/29 02:56:59;;;;;;;40.05;21.13;;;5.10;99.90;;;;;;5055826;28;20052;-74
2023/01/29 02:59:42;;;;;;;37.70;20.48;;;5.00;99.90;;;;;;5037279;28;20059;-75
2023/01/29 03:02:15;;;;;;;37.53;20.80;;;5.10;99.90;;;;;;5051474;28;20338;-76
2023/01/29 03:04:55;;;;;;;34.25;19.88;;;5.10;99.90;;;;;;5017119;28;20057;-78
2023/01/29 03:07:44;;;;;;;37.83;20.00;;;5.00;99.90;;;;;;5018656;28;20045;-78
2023/01/29 03:10:50;;;;;;;37.70;20.10;;;5.10;99.90;;;;;;5018326;28;20041;-75
2023/01/29 03:13:43;;;;;;;36.47;20.15;;;5.10;99.90;;;;;;5034197;28;20376;-74
2023/01/29 03:16:11;;;;;;;42.88;19.95;;;5.10;99.90;;;;;;5018119;28;20468;-78
2023/01/29 03:18:50;;;;;;;39.03;20.45;;;5.40;99.90;;;;;;5017879;28;20503;-75
2023/01/29 03:33:47;;;;;;;40.78;21.02;;;4.80;99.90;;;;;;4939211;29;20050;-74
2023/01/29 03:36:21;;;;;;;50.67;22.10;;;5.10;99.90;;;;;;4984247;28;20068;-76
2023/01/29 03:38:49;;;;;;;41.30;21.63;;;5.10;99.90;;;;;;5016896;28;20052;-75
2023/01/29 03:41:34;;;;;;;42.90;22.17;;;5.10;99.90;;;;;;5017785;28;20045;-74
2023/01/29 03:44:16;;;;;;;45.58;22.40;;;5.10;99.90;;;;;;5017882;28;20377;-79
2023/01/29 03:47:12;;;;;;;47.33;22.45;;;5.10;99.90;;;;;;5034828;28;20049;-78
2023/01/29 03:49:49;;;;;;;49.47;22.95;;;5.10;99.90;;;;;;5017837;28;20384;-75
2023/01/29 03:52:26;;;;;;;44.25;21.88;;;5.10;99.90;;;;;;5033837;28;20060;-78
2023/01/29 03:55:05;;;;;;;39.47;21.48;;;5.10;99.90;;;;;;5018163;28;20037;-77
2023/01/29 03:57:38;;;;;;;44.17;22.88;;;5.10;99.90;;;;;;5001461;28;20041;-78
2023/01/29 04:00:14;;;;;;;42.90;22.38;;;5.10;99.90;;;;;;5001521;28;20460;-75
2023/01/29 04:03:11;;;;;;;41.58;21.85;;;5.20;99.90;;;;;;5034694;28;20049;-75
2023/01/29 04:05:50;;;;;;;43.92;21.83;;;5.10;99.90;;;;;;5016511;28;20049;-78
2023/01/29 04:08:29;;;;;;;53.35;23.67;;;5.40;99.90;;;;;;5017486;28;20376;-75
2023/01/29 04:11:07;;;;;;;48.83;23.58;;;5.10;99.90;;;;;;5016432;28;20045;-77
2023/01/29 04:13:35;;;;;;;44.47;22.52;;;5.50;99.90;;;;;;5017494;28;20049;-74
2023/01/29 04:16:07;;;;;;;42.53;22.67;;;5.70;99.90;;;;;;5017258;28;20041;-76
2023/01/29 04:18:59;;;;;;;43.05;22.77;;;5.10;99.90;;;;;;5016188;28;20045;-76
2023/01/29 04:21:38;;;;;;;45.40;23.73;;;5.10;99.90;;;;;;5017494;28;20052;-75
2023/01/29 04:24:06;;;;;;;51.17;22.55;;;5.40;99.90;;;;;;5017089;28;20495;-76
2023/01/29 04:26:49;;;;;;;44.95;22.42;;;5.10;99.90;;;;;;5016355;28;20057;-75
2023/01/29 04:29:29;;;;;;;51.17;23.38;;;5.10;99.90;;;;;;5001370;28;20491;-76
2023/01/29 04:32:23;;;;;;;48.55;23.05;;;5.10;99.90;;;;;;4999812;28;20050;-78
2023/01/29 04:34:58;;;;;;;48.13;23.55;;;5.10;99.90;;;;;;5017322;28;20037;-76
2023/01/29 04:38:02;;;;;;;48.22;23.95;;;5.10;99.90;;;;;;5017044;28;20049;-77
2023/01/29 04:40:49;;;;;;;46.85;23.02;;;5.10;99.90;;;;;;5034448;28;20049;-76
2023/01/29 04:43:25;;;;;;;44.63;23.73;;;5.10;99.90;;;;;;5034486;28;20057;-74
2023/01/29 04:46:02;;;;;;;48.20;23.33;;;5.60;99.90;;;;;;5035199;28;20061;-75
2023/01/29 04:48:48;;;;;;;45.13;23.02;;;5.80;99.90;;;;;;5038343;28;20481;-79
2023/01/29 04:51:29;;;;;;;46.58;22.58;;;5.10;99.90;;;;;;5037399;28;20061;-77
2023/01/29 04:54:11;;;;;;;46.88;22.20;;;5.10;99.90;;;;;;5038372;28;20049;-75
2023/01/29 04:56:55;;;;;;;44.20;23.10;;;5.20;99.90;;;;;;5037940;28;20487;-77
2023/01/29 04:59:35;;;;;;;49.13;24.13;;;5.20;99.90;;;;;;5036791;28;20057;-77
2023/01/29 05:02:05;;;;;;;51.28;23.10;;;5.10;99.90;;;;;;5038042;28;20461;-77
2023/01/29 05:04:34;;;;;;;45.10;22.60;;;5.10;99.90;;;;;;5019902;28;20049;-75
2023/01/29 05:07:08;;;;;;;51.75;23.83;;;5.10;99.90;;;;;;5037803;28;20057;-75
2023/01/29 05:09:37;;;;;;;50.35;24.50;;;5.10;99.90;;;;;;5020517;28;20053;-74
2023/01/29 05:12:08;;;;;;;44.20;23.55;;;5.20;99.90;;;;;;5036458;28;20049;-75
2023/01/29 05:14:38;;;;;;;47.40;24.42;;;5.20;99.90;;;;;;5020814;28;20049;-76
2023/01/29 05:17:13;;;;;;;44.58;23.60;;;5.10;99.90;;;;;;5037988;28;20046;-76
2023/01/29 05:19:41;;;;;;;54.25;23.52;;;5.10;99.90;;;;;;5036656;28;20045;-77
2023/01/29 05:22:11;;;;;;;44.50;23.45;;;5.20;99.90;;;;;;5037645;28;20468;-77
2023/01/29 05:24:38;;;;;;;55.75;23.30;;;5.10;99.90;;;;;;5019474;28;20065;-79
2023/01/29 05:29:58;;;;;;;49.05;23.05;;;5.10;99.90;;;;;;5037555;28;20369;-76
2023/01/29 05:32:25;;;;;;;49.55;23.88;;;5.10;99.90;;;;;;5036311;28;20054;-76
2023/01/29 05:34:53;;;;;;;45.38;23.33;;;5.20;99.90;;;;;;5037163;28;20053;-75
2023/01/29 05:37:20;;;;;;;50.40;23.20;;;4.70;99.90;;;;;;5004123;28;20060;-76
2023/01/29 05:39:48;;;;;;;44.30;23.80;;;5.10;99.90;;;;;;5018815;28;20050;-76
2023/01/29 05:42:15;;;;;;;40.10;21.70;;;5.10;99.90;;;;;;5037232;28;20079;-77
2023/01/29 05:44:42;;;;;;;45.97;22.70;;;5.10;99.90;;;;;;5036307;28;20053;-75
2023/01/29 05:47:10;;;;;;;50.97;22.95;;;5.50;99.90;;;;;;5037134;28;20050;-76
2023/01/29 05:49:37;;;;;;;47.00;22.08;;;5.10;99.90;;;;;;5037359;28;20412;-77
2023/01/29 05:52:05;;;;;;;43.05;21.35;;;5.70;99.90;;;;;;5035771;28;20052;-76
2023/01/29 05:54:32;;;;;;;43.60;23.08;;;5.10;99.90;;;;;;5019847;28;20041;-77
2023/01/29 05:57:00;;;;;;;42.05;22.15;;;5.40;99.90;;;;;;5036863;28;20056;-77
2023/01/29 05:59:30;;;;;;;43.63;22.38;;;5.10;99.90;;;;;;5035677;28;20045;-77
2023/01/29 06:01:57;;;;;;;39.63;20.88;;;5.10;99.90;;;;;;5036509;28;20056;-77
2023/01/29 06:04:24;;;;;;;37.53;21.23;;;5.10;99.90;;;;;;5018590;28;20349;-78
2023/01/29 06:06:52;;;;;;;41.90;22.92;;;5.10;99.90;;;;;;5019267;28;20045;-76
2023/01/29 06:09:19;;;;;;;45.67;21.65;;;5.70;99.90;;;;;;5036831;28;20048;-76
2023/01/29 06:11:47;;;;;;;39.78;21.52;;;5.10;99.90;;;;;;5035517;28;20045;-78
2023/01/29 06:14:15;;;;;;;44.08;21.85;;;5.20;99.90;;;;;;5036463;28;20052;-77
2023/01/29 06:16:42;;;;;;;44.15;22.40;;;5.90;99.90;;;;;;5036919;28;20049;-79
2023/01/29 06:19:09;;;;;;;42.10;22.17;;;5.10;99.90;;;;;;5035711;28;20052;-77
2023/01/29 06:21:37;;;;;;;44.92;21.50;;;5.10;99.90;;;;;;5036483;28;20061;-78
2023/01/29 06:24:05;;;;;;;43.92;20.23;;;5.10;99.90;;;;;;5036655;28;20380;-78
2023/01/29 06:26:33;;;;;;;39.60;19.88;;;5.20;99.90;;;;;;5035517;28;20042;-76
2023/01/29 06:29:00;;;;;;;38.97;19.60;;;5.20;99.90;;;;;;5036182;28;20376;-75
2023/01/29 06:31:28;;;;;;;36.80;20.30;;;5.10;99.90;;;;;;5035438;28;20045;-77
2023/01/29 06:34:08;;;;;;;38.88;20.15;;;5.10;99.90;;;;;;5036238;28;20049;-76
2023/01/29 06:36:36;;;;;;;35.88;19.15;;;5.10;99.90;;;;;;5036309;28;20050;-77
2023/01/29 06:39:03;;;;;;;36.08;18.73;;;5.10;99.90;;;;;;5017845;28;20060;-76
2023/01/29 06:41:31;;;;;;;39.13;18.77;;;5.30;99.90;;;;;;5035918;28;20049;-76
2023/01/29 06:43:58;;;;;;;31.60;18.20;;;5.10;99.90;;;;;;5019053;28;20465;-74
2023/01/29 06:46:26;;;;;;;31.20;17.05;;;5.10;99.90;;;;;;5017498;28;20056;-77
2023/01/29 06:48:56;;;;;;;34.10;17.20;;;6.00;99.90;;;;;;5036092;28;20048;-75
2023/01/29 06:51:23;;;;;;;37.17;17.67;;;5.10;99.90;;;;;;5017407;28;20072;-77
2023/01/29 06:53:53;;;;;;;31.00;15.85;;;5.20;99.90;;;;;;5018391;28;20380;-77
2023/01/29 06:56:21;;;;;;;28.83;15.75;;;5.10;99.90;;;;;;5035750;28;20045;-79
2023/01/29 06:58:49;;;;;;;31.17;15.60;;;5.10;99.90;;;;;;5017663;28;20037;-74
2023/01/29 07:01:17;;;;;;;32.40;15.85;;;7.10;99.90;;;;;;5018557;28;20045;-74
2023/01/29 07:04:02;;;;;;;25.48;14.57;;;5.50;99.90;;;;;;5035439;28;20515;-75
2023/01/29 07:06:30;;;;;;;;;;;5.30;99.90;;;;;;5017547;28;20056;-77
2023/01/29 07:08:57;;;;;;;25.38;13.25;;;6.00;99.90;;;;;;5035290;28;19921;-77
2023/01/29 07:11:25;;;;;;;27.73;14.98;;;5.20;99.90;;;;;;5034419;28;20050;-77
2023/01/29 07:13:52;;;;;;;26.92;13.43;;;5.20;99.90;;;;;;5035546;28;20042;-78
2023/01/29 07:16:20;;;;;;;26.05;13.07;;;5.20;99.90;;;;;;5035644;28;20041;-78
2023/01/29 07:18:47;;;;;;;26.25;13.20;;;5.20;99.90;;;;;;5034188;28;20053;-79
2023/01/29 07:21:15;;;;;;;24.25;12.23;;;5.20;99.90;;;;;;5035242;28;20045;-77
2023/01/29 07:23:42;;;;;;;22.73;12.88;;;6.20;99.90;;;;;;5035698;28;20041;-78
2023/01/29 07:26:10;;;;;;;22.00;11.82;;;5.20;99.90;;;;;;5034122;28;20051;-75
2023/01/29 07:28:39;;;;;;;23.02;12.20;;;5.20;99.90;;;;;;5035386;28;20056;-78
2023/01/29 07:31:07;;;;;;;23.27;12.07;;;5.30;99.90;;;;;;5016809;28;20045;-78
2023/01/29 07:33:35;;;;;;;21.25;12.43;;;5.20;99.90;;;;;;5017884;28;20044;-79
2023/01/29 07:36:07;;;;;;;25.80;12.35;;;5.20;99.90;;;;;;5034939;28;20049;-77
2023/01/29 07:38:37;;;;;;;26.23;13.35;;;5.20;99.90;;;;;;5033994;28;20045;-76
2023/01/29 07:41:05;;;;;;;24.20;12.88;;;6.10;99.90;;;;;;5035129;28;20045;-76
2023/01/29 07:43:33;;;;;;;26.02;12.40;;;5.00;99.90;;;;;;5017865;28;20049;-77
2023/01/29 07:46:02;;;;;;;25.08;13.25;;;5.00;99.90;;;;;;5016652;28;20049;-77
2023/01/29 07:48:29;;;;;;;31.20;14.63;;;5.30;99.90;;;;;;5035220;28;20068;-74
2023/01/29 07:50:57;;;;;;;24.67;12.77;;;4.90;99.90;;;;;;5034564;28;20380;-75
2023/01/29 07:53:26;;;;;;;25.67;13.20;;;4.80;99.90;;;;;;5034790;28;20045;-73
2023/01/29 07:55:54;;;;;;;23.83;13.13;;;4.70;99.90;;;;;;5017621;28;20038;-76
2023/01/29 07:58:22;;;;;;;25.17;12.93;;;4.80;99.90;;;;;;5033625;28;20045;-75
2023/01/29 08:00:49;;;;;;;30.90;14.38;;;4.80;99.90;;;;;;5034674;28;20056;-77
2023/01/29 08:03:21;;;;;;;27.15;13.90;;;4.80;99.90;;;;;;5039172;28;20060;-76
2023/01/29 08:05:48;;;;;;;24.85;12.63;;;5.40;99.90;;;;;;5052534;28;20049;-76
2023/01/29 08:08:16;;;;;;;25.52;12.98;;;4.80;99.90;;;;;;5054599;28;20044;-78
2023/01/29 08:10:44;;;;;;;24.25;12.38;;;4.90;99.90;;;;;;5053639;28;20045;-78
2023/01/29 08:13:11;;;;;;;27.45;11.57;;;5.00;99.90;;;;;;5053314;28;20044;-75
2023/01/29 08:15:44;;;;;;;18.35;11.32;;;5.00;99.90;;;;;;5054490;28;20044;-76
2023/01/29 08:18:13;;;;;;;20.48;10.55;;;5.00;99.90;;;;;;5053647;28;20408;-75
2023/01/29 08:20:41;;;;;;;20.27;10.98;;;5.10;99.90;;;;;;5056971;28;20048;-76
2023/01/29 08:23:13;;;;;;;18.30;9.98;;;6.00;99.90;;;;;;5058044;28;20048;-77
2023/01/29 08:25:41;;;;;;;26.73;9.82;;;5.40;99.90;;;;;;5057356;28;20049;-75
2023/01/29 08:28:10;;;;;;;18.00;9.73;;;5.10;99.90;;;;;;5058881;28;20041;-76
2023/01/29 08:30:38;;;;;;;16.73;9.05;;;5.40;99.90;;;;;;5058374;28;20057;-79
2023/01/29 08:33:06;;;;;;;16.98;8.65;;;5.10;99.90;;;;;;5039642;28;20045;-76
2023/01/29 08:35:33;;;;;;;18.05;9.23;;;5.20;99.90;;;;;;5058265;28;20041;-76
2023/01/29 08:38:02;;;;;;;18.50;8.70;;;5.20;99.90;;;;;;5057162;28;20049;-77
2023/01/29 08:40:32;;;;;;;17.23;9.05;;;5.40;99.90;;;;;;5058234;28;20056;-79
2023/01/29 08:43:01;;;;;;;16.77;9.02;;;7.10;99.90;;;;;;5058617;28;20522;-77
2023/01/29 08:45:33;;;;;;;21.02;9.45;;;5.50;99.90;;;;;;5057190;28;20045;-79
2023/01/29 08:48:01;;;;;;;17.73;9.32;;;5.50;99.90;;;;;;5058235;28;20048;-77
2023/01/29 08:50:30;;;;;;;19.65;8.82;;;5.70;99.90;;;;;;5058118;28;20048;-79
2023/01/29 08:52:59;;;;;;;17.50;8.50;;;5.70;99.90;;;;;;5056905;28;20052;-78
2023/01/29 08:55:27;;;;;;;18.05;9.35;;;5.80;99.90;;;;;;5057003;28;20060;-78
2023/01/29 08:57:57;;;;;;;18.95;9.60;;;5.80;99.90;;;;;;5056470;28;20391;-76
2023/01/29 09:00:25;;;;;;;19.33;9.88;;;5.90;99.90;;;;;;5040746;28;20041;-77
2023/01/29 09:02:53;;;;;;;18.48;10.35;;;5.90;99.90;;;;;;5056933;28;20583;-76
2023/01/29 09:05:20;;;;;;;17.73;10.07;;;6.10;99.90;;;;;;5056707;28;20049;-77
2023/01/29 09:07:48;;;;;;;18.45;10.43;;;6.20;99.90;;;;;;5056877;28;20053;-76
2023/01/29 09:10:15;;;;;;;24.25;10.57;;;6.10;99.90;;;;;;5057235;28;20053;-75
2023/01/29 09:12:43;;;;;;;19.00;9.88;;;6.20;99.90;;;;;;5056334;28;20044;-76
2023/01/29 09:15:11;;;;;;;21.52;10.38;;;6.20;99.90;;;;;;5056778;28;20499;-77
2023/01/29 09:17:39;;;;;;;18.90;10.50;;;6.30;99.90;;;;;;5055541;28;20052;-76
2023/01/29 09:20:07;;;;;;;;;;;6.30;99.90;;;;;;5057567;28;20053;-77
2023/01/29 09:22:35;;;;;;;17.02;8.88;;;6.40;99.90;;;;;;5057500;28;19921;-77
2023/01/29 09:25:03;;;;;;;17.10;8.55;;;6.50;99.90;;;;;;5056415;28;20044;-78
2023/01/29 09:27:30;;;;;;;18.63;9.80;;;6.60;99.90;;;;;;5056771;28;20055;-78
2023/01/29 09:29:58;;;;;;;20.48;10.18;;;8.10;99.90;;;;;;5057294;28;20048;-76
2023/01/29 09:32:25;;;;;;;23.83;9.95;;;8.30;99.90;;;;;;5055447;28;20372;-79
2023/01/29 09:35:13;;;;;;;22.20;10.40;;;6.60;99.90;;;;;;5057622;28;20053;-76
2023/01/29 09:37:40;;;;;;;20.73;10.02;;;7.10;99.90;;;;;;5056207;28;20041;-77
2023/01/29 09:40:36;;;;;;;22.70;11.20;;;6.60;99.90;;;;;;5057288;28;20451;-78
2023/01/29 09:43:23;;;;;;;24.98;10.63;;;6.60;99.90;;;;;;5026628;28;20494;-78
2023/01/29 09:46:03;;;;;;;21.17;10.07;;;6.60;99.90;;;;;;5056180;28;20056;-77
2023/01/29 09:48:34;;;;;;;21.60;11.25;;;6.70;99.90;;;;;;5057011;28;20041;-78
2023/01/29 09:51:07;;;;;;;20.15;10.27;;;6.70;99.90;;;;;;5055042;28;20040;-75
2023/01/29 09:53:42;;;;;;;20.63;10.65;;;6.80;99.90;;;;;;5057099;28;20376;-77
2023/01/29 09:56:35;;;;;;;23.40;10.35;;;7.50;99.90;;;;;;5057180;28;20045;-79
2023/01/29 09:59:03;;;;;;;21.48;10.90;;;7.20;99.90;;;;;;5053889;28;20048;-76
2023/01/29 10:01:37;;;;;;;20.17;10.30;;;7.50;99.90;;;;;;5056813;28;20049;-78
2023/01/29 10:04:39;;;;;;;26.25;10.48;;;6.90;99.90;;;;;;5037533;28;20049;-79
2023/01/29 10:07:42;;;;;;;18.88;9.60;;;6.90;99.90;;;;;;5036664;28;20060;-75
2023/01/29 10:10:31;;;;;;;18.65;9.88;;;6.90;99.90;;;;;;5036584;28;20048;-75
2023/01/29 10:13:18;;;;;;;19.10;9.95;;;6.90;99.90;;;;;;5035424;28;20061;-77
2023/01/29 10:16:20;;;;;;;22.35;11.18;;;6.90;99.90;;;;;;5036890;28;20041;-74
2023/01/29 10:18:59;;;;;;;18.77;9.32;;;6.90;99.90;;;;;;5002179;28;20468;-77
2023/01/29 10:21:48;;;;;;;18.98;9.63;;;6.90;99.90;;;;;;5036747;28;20045;-78
2023/01/29 10:24:37;;;;;;;19.15;9.95;;;6.90;99.90;;;;;;5036259;28;20464;-76
2023/01/29 10:27:14;;;;;;;20.42;10.23;;;6.90;99.90;;;;;;5036726;28;20046;-78
2023/01/29 10:29:44;;;;;;;17.75;9.43;;;6.90;99.90;;;;;;5019150;28;20472;-74
2023/01/29 10:32:21;;;;;;;21.67;9.95;;;7.00;99.90;;;;;;5017765;28;20048;-78
2023/01/29 10:34:55;;;;;;;20.65;10.05;;;7.10;99.90;;;;;;5036081;28;20045;-74
2023/01/29 10:37:30;;;;;;;18.88;9.55;;;7.10;99.90;;;;;;5036630;28;20408;-77
2023/01/29 10:39:58;;;;;;;22.00;9.98;;;7.20;99.90;;;;;;5034953;28;20064;-77
2023/01/29 10:42:37;;;;;;;19.10;9.73;;;7.20;99.90;;;;;;5035292;28;20048;-78
2023/01/29 10:45:25;;;;;;;24.55;10.20;;;7.30;99.90;;;;;;5034832;28;20053;-79
2023/01/29 10:47:55;;;;;;;;;;;7.30;99.90;;;;;;5036223;28;20057;-76
2023/01/29 10:50:41;;;;;;;22.52;11.23;;;7.40;99.90;;;;;;5018735;28;20283;-75
2023/01/29 10:53:24;;;;;;;21.23;10.95;;;7.40;99.90;;;;;;5034497;28;20064;-78
2023/01/29 10:56:15;;;;;;;22.05;10.95;;;7.50;99.90;;;;;;5035668;28;20472;-76
2023/01/29 10:58:54;;;;;;;23.63;11.13;;;7.50;99.90;;;;;;5034489;28;20053;-78
2023/01/29 11:01:22;;;;;;;20.00;9.63;;;7.70;99.90;;;;;;5035676;28;20050;-76
2023/01/29 11:04:05;;;;;;;;;;;7.80;99.90;;;;;;5036536;28;20374;-79
2023/01/29 11:06:34;;;;;;;21.83;10.55;;;7.80;99.90;;;;;;5016861;28;20348;-76
2023/01/29 11:09:15;;;;;;;23.33;11.90;;;7.80;99.90;;;;;;5035583;28;20376;-76
2023/01/29 11:11:51;;;;;;;19.83;10.80;;;7.80;99.90;;;;;;5034332;28;20049;-78
2023/01/29 11:14:28;;;;;;;24.52;11.27;;;7.70;99.90;;;;;;5035251;28;20474;-79
2023/01/29 11:16:56;;;;;;;18.38;10.30;;;7.80;99.90;;;;;;5018431;28;20056;-76
2023/01/29 11:19:44;;;;;;;19.55;10.27;;;7.80;99.90;;;;;;5034341;28;20064;-77
2023/01/29 11:22:20;;;;;;;20.88;9.50;;;7.50;99.90;;;;;;5035343;28;20468;-75
2023/01/29 11:25:09;;;;;;;18.85;9.95;;;7.80;99.90;;;;;;5034088;28;20385;-79
2023/01/29 11:27:45;;;;;;;20.45;10.07;;;7.80;99.90;;;;;;5035489;28;20045;-76
2023/01/29 11:30:37;;;;;;;16.95;9.38;;;7.80;99.90;;;;;;5002073;28;20041;-77
2023/01/29 11:33:17;;;;;;;17.02;9.23;;;7.80;99.90;;;;;;5016609;28;20049;-76
2023/01/29 11:35:45;;;;;;;17.95;8.75;;;8.60;99.90;;;;;;5035440;28;20050;-77
2023/01/29 11:38:15;;;;;;;;;;;7.90;99.90;;;;;;5034411;28;20050;-78
2023/01/29 11:40:43;;;;;;;16.98;8.52;;;7.90;99.90;;;;;;5035243;28;19948;-79
2023/01/29 11:43:12;;;;;;;;;;;8.00;99.90;;;;;;5018433;28;20052;-79
2023/01/29 11:45:40;;;;;;;17.27;8.88;;;8.00;99.90;;;;;;5016613;28;19921;-77
2023/01/29 11:48:20;;;;;;;18.00;9.73;;;8.00;99.90;;;;;;5035534;28;20338;-76
2023/01/29 11:50:54;;;;;;;18.35;8.80;;;8.00;99.90;;;;;;5035113;28;20068;-79
2023/01/29 11:53:43;;;;;;;15.77;8.43;;;8.10;99.90;;;;;;5033803;28;20072;-75
2023/01/29 11:56:22;;;;;;;15.00;8.52;;;8.10;99.90;;;;;;5034794;28;20049;-74
2023/01/29 11:58:52;;;;;;;15.20;9.25;;;8.20;99.90;;;;;;5016864;28;20046;-75
2023/01/29 12:01:33;;;;;;;14.27;8.80;;;7.70;99.90;;;;;;5017801;28;20056;-76
2023/01/29 12:04:03;;;;;;;18.05;9.57;;;8.20;99.90;;;;;;5034672;28;20061;-75
2023/01/29 12:06:41;;;;;;;17.70;9.88;;;8.40;99.90;;;;;;5016400;28;20081;-77
2023/01/29 12:09:14;;;;;;;17.02;8.38;;;8.20;99.90;;;;;;5017876;28;20050;-76
2023/01/29 12:11:43;;;;;;;16.17;9.50;;;9.70;99.90;;;;;;5033730;28;20377;-75
2023/01/29 12:14:29;;;;;;;17.42;9.40;;;8.10;99.90;;;;;;5034425;28;20045;-77
2023/01/29 12:17:19;;;;;;;19.05;10.10;;;8.10;99.90;;;;;;5034681;28;20499;-78
2023/01/29 12:20:00;;;;;;;17.77;9.73;;;8.00;99.90;;;;;;5033609;28;20042;-77
2023/01/29 12:22:46;;;;;;;18.67;10.20;;;8.10;99.90;;;;;;5034940;28;20049;-77
2023/01/29 12:25:49;;;;;;;20.05;9.35;;;7.90;99.90;;;;;;5033308;28;20053;-76
2023/01/29 12:28:35;;;;;;;17.65;10.05;;;7.90;99.90;;;;;;5034925;28;20061;-77
2023/01/29 12:31:08;;;;;;;20.83;10.75;;;7.40;99.90;;;;;;5033355;28;20041;-74
2023/01/29 12:33:59;;;;;;;19.80;10.10;;;7.70;99.90;;;;;;5016978;28;20060;-76
2023/01/29 12:36:54;;;;;;;16.92;8.75;;;7.80;99.90;;;;;;5034627;28;20341;-76
2023/01/29 12:39:21;;;;;;;16.45;8.68;;;8.80;99.90;;;;;;5029329;28;20049;-74
2023/01/29 12:41:52;;;;;;;16.20;8.75;;;9.10;99.90;;;;;;5017364;28;20046;-74
2023/01/29 12:44:33;;;;;;;15.30;8.40;;;8.20;99.90;;;;;;5033656;28;20065;-74
2023/01/29 12:47:11;;;;;;;15.48;7.57;;;8.00;99.90;;;;;;5034286;28;20124;-76
2023/01/29 12:49:41;;;;;;;13.85;7.82;;;8.30;99.90;;;;;;5017363;28;20045;-75
2023/01/29 12:52:18;;;;;;;13.38;6.28;;;9.00;99.90;;;;;;5015777;28;20054;-76
2023/01/29 12:54:59;;;;;;;12.75;6.60;;;8.40;99.90;;;;;;5016791;28;20057;-74
2023/01/29 12:57:45;;;;;;;9.40;5.80;;;8.40;99.90;;;;;;5033418;28;20496;-78
2023/01/29 13:00:19;;;;;;;9.30;5.32;;;8.50;99.90;;;;;;5017018;28;20045;-75
2023/01/29 13:03:09;;;;;;;7.63;4.60;;;8.50;99.90;;;;;;5033875;28;20053;-77
2023/01/29 13:05:44;;;;;;;9.68;5.00;;;8.60;99.90;;;;;;5013150;28;20496;-74
2023/01/29 13:08:36;;;;;;;9.50;4.47;;;8.70;99.90;;;;;;5037942;28;20372;-74
2023/01/29 13:11:10;;;;;;;9.55;4.82;;;10.00;99.90;;;;;;5036525;28;20049;-77
2023/01/29 13:13:58;;;;;;;8.50;4.70;;;8.70;99.90;;;;;;5038262;28;20060;-77
2023/01/29 13:16:29;;;;;;;9.05;4.85;;;8.80;99.90;;;;;;5037856;28;20053;-75
2023/01/29 13:19:22;;;;;;;8.63;5.00;;;8.80;99.90;;;;;;5036639;28;20042;-75
2023/01/29 13:21:52;;;;;;;9.32;4.68;;;8.90;99.90;;;;;;5037946;28;20049;-75
2023/01/29 13:24:23;;;;;;;11.38;5.10;;;10.40;99.90;;;;;;5003297;28;20064;-76
2023/01/29 13:26:51;;;;;;;11.48;5.65;;;8.90;99.90;;;;;;5037684;28;20049;-78
2023/01/29 13:29:20;;;;;;;9.55;5.63;;;8.60;99.90;;;;;;5037776;28;20053;-74
2023/01/29 13:31:49;;;;;;;11.93;6.35;;;8.90;99.90;;;;;;5036170;28;20043;-77
2023/01/29 13:34:24;;;;;;;9.48;5.45;;;9.00;99.90;;;;;;5037851;28;20050;-76
2023/01/29 13:36:55;;;;;;;11.05;5.72;;;9.00;99.90;;;;;;5037574;28;20057;-75
2023/01/29 13:39:30;;;;;;;10.80;6.00;;;9.00;99.90;;;;;;5019109;28;20456;-77
2023/01/29 13:41:59;;;;;;;12.30;6.05;;;9.20;99.90;;;;;;5037175;28;20052;-77
2023/01/29 13:44:32;;;;;;;8.57;5.68;;;8.80;99.90;;;;;;5036177;28;20057;-77
2023/01/29 13:47:08;;;;;;;12.52;5.40;;;9.10;99.90;;;;;;5020268;28;20064;-76
2023/01/29 13:49:43;;;;;;;11.98;5.60;;;9.00;99.90;;;;;;5037200;28;20049;-78
2023/01/29 13:52:31;;;;;;;11.82;6.38;;;9.00;99.90;;;;;;5036070;28;20072;-76